Ana Sayfa
METAR-TAF:

METAR-TAF

Havaalanları :

Tanabe, Japonya

Enlem: 33-44N, Boylam: 135-23E, yükseklik: 105 m

Güncel hava durumu gözlemi

Rapor saat 08:00 UTC de 1 saat ve 2 dakika önce yapıldı.
Rüzgar kuzeydan 13 kt
Sıcaklık 12°C
Nem 47%
Basınç 1009 hPa
Görüş mesafesi 10 km veya daha fazla
3000 ft yükseklikte az bulutlu
8000 ft yükseklikte parçalı bulutlu
parçalı çok bulutlu

METAR: RJBD 010800Z 35013KT 9999 FEW030 SCT080 BKN/// 12/01 Q1009

Saat: 18:02 (09:02 UTC)


TAF: eksik

4.000'den fazla havaalanı için hava durumu gözlemleri ve tahminleri (METAR ve TAF raporları).

Kullanılabilir istasyonlar harita üzerinde sarı ve kırmızı noktalarla gösterilir.

İstasyonun adını görmek için fareyi noktanın üzerinde gezdirin.

Sonrasında hava gözlem ve tahminlerini görmek için tıklayın.

Haritayı değiştirmek için: yaklaştırmak için siyah artı işaretli yeşil düğmeye ve uzaklaştırmak için de eksi işaretli düğmeye hızla tıklayın; bitişik haritalar için yeşil okları kullanın.


METAR-TAF: